Terminal Aerodrome Forecast
Issued by NWS Memphis, TN

Home | Current Version | Previous Version | Text Only | Print | Product List | Glossary On
Versions: 1 2 3 4 5 6 7 8 9 10 11 12 13 14
000
FTUS44 KMEG 241100
TAFMKL
TAF
KMKL 241120Z 2412/2512 12004KT P6SM BKN250
     FM241400 18008KT P6SM BKN250
     FM241700 19012G20KT P6SM SCT050 BKN150
     FM242300 20013G22KT P6SM VCTS BKN040CB OVC100
      TEMPO 2501/2504 3SM TSRA OVC015CB
     FM250500 22015G25KT P6SM OVC020
     FM251100 25012KT P6SM BKN030=

USA.gov is the U.S. government's official web portal to all federal, state and local government web resources and services.